Latest Coastal Weather Observations for Townsville

IDQ60701

Issued at 5:31 pm EST Friday 6 May 2016 (issued every 10 minutes, with the page automatically refreshed every 10 minutes)

About coastal observations | Map of coastal stations | Coastal observations for QLD | Marine services | Other Formats
Station Details ID: 032040 Name: TOWNSVILLE AERO Lat: -19.25 Lon: 146.77 Height: 4.34 m
Data from the previous 72 hours. | See also: Recent months at Townsville
Date/Time
EST
Temp

°C
Wind Pressure Rain
since 9am
mm
Weather Cloud Vis
km
Sea
Height
m
Swell
Dir
 
Speed
knots
Gust
knots
hPa Trend Height
m
Period
s
Dir
06/05:00pm 27.7 ENE 12 15 1013.4 - 0.0 - Mostly clear 10 - - - -
06/04:30pm 28.3 ENE 13 16 1013.1 - 0.0 - Mostly clear 10 - - - -
06/04:00pm 28.8 ENE 14 17 1012.8 - 0.0 - Mostly clear 10 - - - -
06/03:30pm 29.0 ENE 14 17 1012.7 - 0.0 - Mostly clear 10 - - - -
06/03:00pm 28.7 ENE 14 17 1012.8 F 0.0 - Mostly clear 10 - - - -
06/02:30pm 29.4 ENE 13 17 1013.1 - 0.0 - Mostly clear 10 - - - -
06/02:00pm 30.0 ENE 15 17 1013.3 - 0.0 - Partly cloudy 10 - - - -
06/01:30pm 29.7 ENE 13 17 1013.7 - 0.0 - Mostly clear 10 - - - -
06/01:00pm 29.7 NE 12 16 1014.1 - 0.0 - Mostly clear 10 - - - -
06/12:30pm 29.5 ENE 12 15 1014.6 - 0.0 - Partly cloudy 10 - - - -
06/12:00pm 30.0 NE 11 15 1015.1 F 0.0 - Partly cloudy 10 - - - -
06/11:30am 29.7 ENE 11 15 1015.6 - 0.0 - Mostly clear 10 - - - -
06/11:00am 30.2 E 11 16 1016.0 - 0.0 - Partly cloudy 10 - - - -
06/10:30am 29.0 E 11 15 1016.2 - 0.0 - Mostly clear 10 - - - -
06/10:00am 29.0 E 9 14 1016.6 - 0.0 - Mostly clear 10 - - - -
06/09:30am 28.8 SE 10 14 1016.5 - 0.0 - Partly cloudy 10 - - - -
06/09:00am 27.3 SE 10 13 1016.4 R 0.0 - Mostly clear 10 - - - -
06/08:30am 26.3 SE 8 10 1016.3 - 0.0 - Mostly clear 10 - - - -
06/08:00am 25.6 SE 7 9 1016.1 - 0.0 - Mostly clear 10 - - - -
06/07:30am 24.9 SE 4 6 1015.7 - 0.0 - Mostly clear 10 - - - -
06/07:00am 24.3 SE 4 5 1015.2 - 0.0 - Mostly clear 10 - - - -
06/06:30am 24.0 SE 5 7 1014.5 - 0.0 - Mostly clear 10 - - - -
06/06:00am 24.1 SE 6 7 1014.4 R 0.0 - Partly cloudy 10 - - - -
06/05:30am 24.3 SE 7 9 1014.1 - 0.0 - Partly cloudy 10 - - - -
06/05:00am 24.2 SE 7 8 1013.8 - 0.0 - - 10 - - - -
06/04:30am 24.2 SE 6 8 1013.7 - 0.0 - - 10 - - - -
06/04:00am 24.3 SE 7 8 1013.6 - 0.0 - - 10 - - - -
06/03:30am 24.7 SE 7 9 1013.6 - 0.0 - - 10 - - - -
06/03:00am 24.8 SE 8 11 1013.8 F 0.0 - Mostly clear 10 - - - -
06/02:30am 24.9 SE 6 8 1014.1 - 0.0 - Partly cloudy 10 - - - -
06/02:00am 24.8 SE 8 10 1014.3 - 0.0 - Partly cloudy 10 - - - -
06/01:30am 24.9 SE 8 10 1014.7 - 0.0 - Partly cloudy 10 - - - -
06/01:00am 25.3 SE 7 9 1014.9 - 0.0 - Partly cloudy 10 - - - -
06/12:30am 25.9 SE 9 11 1015.0 - 0.0 - Partly cloudy 10 - - - -
06/12:00am 26.1 ESE 6 8 1015.5 F 0.0 - Partly cloudy 10 - - - -
 
Date/Time
EST
Temp

°C
Wind Pressure Rain
since 9am
mm
Weather Cloud Vis
km
Sea
Height
m
Swell
Dir
 
Speed
knots
Gust
knots
hPa Trend Height
m
Period
s
Dir
05/11:30pm 26.0 E 7 10 1015.6 - 0.0 - - 10 - - - -
05/11:00pm 26.3 E 8 11 1015.7 - 0.0 - Partly cloudy 10 - - - -
05/10:30pm 26.1 E 8 11 1016.0 - 0.0 - Partly cloudy 10 - - - -
05/10:00pm 26.3 E 10 13 1015.9 - 0.0 - Partly cloudy 10 - - - -
05/09:35pm 26.3 E 10 14 1016.2 - 0.0 - Partly cloudy 10 - - - -
05/09:30pm 26.2 E 10 14 1016.2 - 0.0 - Partly cloudy 10 - - - -
05/09:17pm 26.4 E 8 10 1016.2 - 0.0 - Partly cloudy 10 - - - -
05/09:00pm 26.3 ENE 10 14 1016.0 R 0.0 - Partly cloudy 10 - - - -
05/08:30pm 26.3 ENE 10 14 1015.9 - 0.0 - Partly cloudy 10 - - - -
05/08:00pm 26.4 ENE 10 14 1015.6 - 0.0 - Partly cloudy 10 - - - -
05/07:30pm 26.4 ENE 10 14 1015.4 - 0.0 - Partly cloudy 10 - - - -
05/07:00pm 26.4 ENE 8 10 1014.9 - 0.0 - - 10 - - - -
05/06:30pm 26.4 ENE 9 12 1014.7 - 0.0 - Partly cloudy 10 - - - -
05/06:00pm 26.6 ENE 10 14 1014.2 R 0.0 - Mostly clear 10 - - - -
05/05:30pm 26.9 ENE 11 14 1013.9 - 0.0 - Mostly clear 10 - - - -
05/05:00pm 27.5 ENE 11 15 1013.6 - 0.0 - Mostly clear 10 - - - -
05/04:30pm 27.9 ENE 12 16 1013.3 - 0.0 - Mostly clear 10 - - - -
05/04:00pm 28.3 ENE 13 17 1013.3 - 0.0 - Mostly clear 10 - - - -
05/03:30pm 28.9 ENE 14 17 1013.1 - 0.0 - Mostly clear 10 - - - -
05/03:00pm 29.2 ENE 15 19 1013.1 S 0.0 - Mostly clear 10 - - - -
05/02:30pm 29.8 ENE 16 18 1013.4 - 0.0 - Mostly clear 10 - - - -
05/02:00pm 29.4 ENE 15 18 1013.6 - 0.0 - Mostly clear 10 - - - -
05/01:30pm 29.9 NE 13 17 1013.8 - 0.0 - Mostly clear 10 - - - -
05/01:00pm 29.7 NE 11 15 1014.2 - 0.0 - Mostly clear 10 - - - -
05/12:30pm 30.6 NE 11 15 1014.7 - 0.0 - Mostly clear 10 - - - -
05/12:00pm 29.8 NE 11 14 1015.1 F 0.0 - Mostly clear 10 - - - -
05/11:30am 30.3 NE 10 14 1015.7 - 0.0 - Mostly clear 10 - - - -
05/11:00am 29.4 ENE 10 14 1016.3 - 0.0 - Mostly clear 10 - - - -
05/10:30am 29.1 E 9 12 1016.6 - 0.0 - Partly cloudy 10 - - - -
05/10:00am 28.7 E 11 15 1016.8 - 0.0 - Mostly clear 10 - - - -
05/09:30am 29.0 SE 8 10 1016.7 - 0.0 - Mostly clear 10 - - - -
05/09:00am 28.2 ESE 8 10 1016.6 F 0.0 - Mostly clear 10 - - - -
05/08:30am 26.5 SE 7 9 1016.4 - 0.0 - Mostly clear 10 - - - -
05/08:00am 25.7 SSE 6 8 1016.3 - 0.0 - Mostly clear 10 - - - -
05/07:30am 24.1 S 4 5 1016.0 - 0.0 - Mostly clear 10 - - - -
05/07:00am 23.1 S 4 5 1015.8 - 0.0 - Mostly clear 10 - - - -
05/06:48am 22.8 CALM 0 5 1015.7 - 0.0 - Mostly clear 10 - - - -
05/06:30am 21.5 CALM 0 0 1015.5 - 0.0 Shallow fog Mostly clear 10 - - - -
05/06:00am 22.0 CALM 0 0 1015.2 R 0.0 - Mostly clear 10 - - - -
05/05:30am 22.0 CALM 0 0 1014.9 - 0.0 - - 10 - - - -
05/05:00am 21.9 CALM 0 0 1014.7 - 0.0 - - 10 - - - -
05/04:30am 21.6 CALM 0 0 1014.5 - 0.0 - - 10 - - - -
05/04:00am 23.0 CALM 0 0 1014.3 - 0.0 - - 10 - - - -
05/03:30am 23.0 CALM 0 0 1014.4 - 0.0 - - 10 - - - -
05/03:00am 22.8 CALM 0 0 1014.5 R 0.0 - - 10 - - - -
05/02:30am 23.4 CALM 0 0 1014.6 - 0.0 - - 10 - - - -
05/02:00am 23.8 SSE 4 5 1014.6 - 0.0 - - 10 - - - -
05/01:30am 24.2 SE 5 6 1014.8 - 0.0 - - 10 - - - -
05/01:00am 24.6 SE 7 8 1015.2 - 0.0 - - 10 - - - -
05/12:30am 25.1 ESE 7 9 1015.3 - 0.0 - - 10 - - - -
05/12:00am 25.4 SE 7 9 1015.2 F 0.0 - - 10 - - - -
 
Date/Time
EST
Temp

°C
Wind Pressure Rain
since 9am
mm
Weather Cloud Vis
km
Sea
Height
m
Swell
Dir
 
Speed
knots
Gust
knots
hPa Trend Height
m
Period
s
Dir
04/11:30pm 25.6 ESE 7 9 1015.3 - 0.0 - - 10 - - - -
04/11:00pm 25.8 SE 6 8 1015.7 - 0.0 - Partly cloudy 10 - - - -
04/10:30pm 25.9 E 6 7 1015.9 - 0.0 - Partly cloudy 10 - - - -
04/10:00pm 26.2 ESE 8 10 1015.9 - 0.0 - Partly cloudy 10 - - - -
04/09:30pm 26.4 ESE 6 8 1015.8 - 0.0 - Partly cloudy 10 - - - -
04/09:00pm 26.5 E 5 6 1015.8 R 0.0 - Mostly cloudy 10 - - - -
04/08:30pm 26.2 E 7 8 1015.4 - 0.0 - - 10 - - - -
04/08:00pm 26.4 E 8 10 1015.0 - 0.0 - Partly cloudy 10 - - - -
04/07:30pm 26.5 ENE 6 8 1014.5 - 0.0 - Cloudy 10 - - - -
04/07:00pm 26.3 CALM 0 0 1014.3 - 0.0 - - 10 - - - -
04/06:30pm 26.3 CALM 0 0 1013.9 - 0.0 - Partly cloudy 10 - - - -
04/06:00pm 26.7 NNW 4 5 1013.4 R 0.0 - Mostly cloudy 10 - - - -
04/05:30pm 27.1 NNW 7 8 1012.8 - 0.0 - Mostly clear 10 - - - -
04/05:00pm 27.7 N 8 10 1012.6 - 0.0 - Mostly clear 10 - - - -
04/04:30pm 28.3 N 9 11 1012.3 - 0.0 - Mostly clear 10 - - - -
04/04:00pm 28.9 N 7 9 1012.0 - 0.0 - Mostly clear 10 - - - -
04/03:30pm 29.4 NNW 7 9 1012.0 - 0.0 - Mostly clear 10 - - - -
04/03:00pm 29.4 NNE 6 9 1011.9 F 0.0 - Cloudy 10 - - - -
04/02:30pm 30.2 ENE 8 11 1012.2 - 0.0 - Mostly clear 10 - - - -
04/02:00pm 29.0 ENE 9 12 1012.3 - 0.0 - Mostly clear 10 - - - -
04/01:30pm 28.9 NE 9 13 1012.8 - 0.0 - Mostly clear 10 - - - -
04/01:00pm 29.2 NE 10 14 1013.2 - 0.0 - Mostly clear 10 - - - -
04/12:30pm 30.0 NE 10 12 1013.6 - 0.0 - Mostly clear 10 - - - -
04/12:00pm 30.5 NE 9 13 1014.0 F 0.0 - Mostly cloudy 10 - - - -
04/11:30am 30.4 NE 7 10 1014.4 - 0.0 - Mostly clear 10 - - - -
04/11:00am 29.6 NE 7 9 1014.8 - 0.0 - Mostly clear 10 - - - -
04/10:30am 29.3 ENE 7 9 1015.1 - 0.0 - Mostly clear 10 - - - -
04/10:00am 29.5 ENE 6 9 1015.2 - 0.0 - Mostly clear 10 - - - -
04/09:30am 28.8 NNW 4 5 1015.4 - 0.0 - Mostly clear 10 - - - -
04/09:00am 27.6 WNW 2 4 1015.5 F 0.0 - Mostly clear 10 - - - -
04/08:30am 27.1 SW 1 5 1015.4 - 0.0 - Mostly clear 10 - - - -
04/08:00am 25.7 CALM 0 4 1015.4 - 0.0 - Mostly clear 10 - - - -
04/07:30am 24.3 WNW 3 4 1015.2 - 0.0 - Mostly clear 10 - - - -
04/07:00am 23.6 WSW 3 4 1015.0 - 0.0 - Mostly clear 10 - - - -
04/06:30am 23.5 WSW 6 9 1014.7 - 0.0 - Mostly clear 10 - - - -
04/06:00am 23.2 CALM 0 0 1014.3 R 0.0 - Mostly clear 10 - - - -
04/05:30am 23.7 CALM 0 0 1014.1 - 0.0 - Partly cloudy 10 - - - -
04/05:00am 23.8 CALM 0 0 1013.9 - 0.0 - Partly cloudy 10 - - - -
04/04:30am 23.3 SSW 4 6 1013.8 - 0.0 - - 10 - - - -
04/04:00am 24.1 SSW 6 7 1013.6 - 0.0 - - 10 - - - -
04/03:30am 23.9 SW 5 6 1013.6 - 0.0 - - 10 - - - -
04/03:00am 24.1 SSW 7 8 1013.5 R 0.0 - - 10 - - - -
04/02:30am 24.1 CALM 0 0 1013.3 - 0.0 - Partly cloudy 10 - - - -
04/02:00am 24.1 CALM 0 0 1013.5 - 0.0 - Cloudy 10 - - - -
04/01:30am 23.9 CALM 0 0 1013.6 - 0.0 - Partly cloudy 10 - - - -
04/01:00am 24.1 CALM 0 0 1013.8 - 0.0 - - 10 - - - -
04/12:30am 24.4 CALM 0 0 1013.9 - 0.0 - - 10 - - - -
04/12:00am 24.6 NE 5 6 1014.0 R 0.0 - - 10 - - - -
 
Date/Time
EST
Temp

°C
Wind Pressure Rain
since 9am
mm
Weather Cloud Vis
km
Sea
Height
m
Swell
Dir
 
Speed
knots
Gust
knots
hPa Trend Height
m
Period
s
Dir
03/11:30pm 24.5 NNE 4 5 1014.3 - 0.0 - Partly cloudy 10 - - - -
03/11:00pm 25.3 NNE 3 4 1014.4 - 0.0 - Partly cloudy 10 - - - -
03/10:30pm 24.8 N 5 6 1014.2 - 0.0 - - 10 - - - -
03/10:00pm 24.5 CALM 0 0 1014.6 - 0.0 - - 10 - - - -
03/09:30pm 24.7 NNW 3 5 1014.4 - 0.0 - - 10 - - - -
03/09:00pm 25.0 CALM 0 0 1014.2 R 0.0 - - 10 - - - -
03/08:30pm 25.2 CALM 0 0 1014.2 - 0.0 - - 10 - - - -
03/08:00pm 25.1 CALM 0 0 1014.0 - 0.0 - - 10 - - - -
03/07:30pm 26.2 ENE 5 6 1013.5 - 0.0 - - 10 - - - -
03/07:00pm 26.3 CALM 0 0 1013.1 - 0.0 - - 10 - - - -
03/06:30pm 26.1 NNW 4 5 1012.7 - 0.0 - - 10 - - - -
03/06:00pm 26.9 N 6 7 1012.4 R 0.0 - - 10 - - - -

Other Formats:

Comma delimited format used in spreadsheet applications
http://www.bom.gov.au/fwo/IDQ60701/IDQ60701.94294.axf

JavaScript Object Notation format (JSON) in row-major order
http://www.bom.gov.au/fwo/IDQ60701/IDQ60701.94294.json